createdAt,value
2023-07-17T00:00:50.662Z,0.50
2023-07-17T00:01:50.767Z,0.50
2023-07-17T00:02:50.708Z,0.50
2023-07-17T00:03:50.764Z,0.39
2023-07-17T00:04:50.822Z,0.34
2023-07-17T00:05:50.872Z,0.34
2023-07-17T00:06:50.939Z,0.34
2023-07-17T00:07:51.001Z,0.34
2023-07-17T00:08:51.051Z,0.37
2023-07-17T00:09:51.124Z,0.39
2023-07-17T00:10:51.186Z,0.43
2023-07-17T00:11:51.232Z,0.50
2023-07-17T00:12:51.281Z,0.50
2023-07-17T00:13:51.344Z,0.50
2023-07-17T00:14:51.357Z,0.50
2023-07-17T00:15:51.372Z,0.50
2023-07-17T00:16:51.398Z,0.50
2023-07-17T00:17:51.404Z,0.50
2023-07-17T00:18:51.385Z,0.50
2023-07-17T00:19:51.384Z,0.50
2023-07-17T00:20:51.392Z,0.50
2023-07-17T00:21:51.387Z,0.50
2023-07-17T00:22:51.459Z,0.50
2023-07-17T00:23:51.399Z,0.50
2023-07-17T00:24:51.378Z,0.50
2023-07-17T00:25:51.382Z,0.50
2023-07-17T00:26:51.389Z,0.50
2023-07-17T00:27:51.378Z,0.51
2023-07-17T00:28:51.379Z,0.50
2023-07-17T00:29:51.434Z,0.51
2023-07-17T00:30:51.452Z,0.51
2023-07-17T00:31:51.436Z,0.50
2023-07-17T00:32:51.495Z,0.50
2023-07-17T00:33:51.478Z,0.50
2023-07-17T00:34:51.506Z,0.50
2023-07-17T00:35:51.536Z,0.51
2023-07-17T00:36:51.592Z,0.50
2023-07-17T00:37:51.593Z,0.51
2023-07-17T00:38:51.612Z,0.51
2023-07-17T00:39:51.593Z,0.51
2023-07-17T00:40:51.635Z,0.51
2023-07-17T00:41:51.602Z,0.51
2023-07-17T00:42:51.620Z,0.51
2023-07-17T00:43:51.637Z,0.51
2023-07-17T00:44:51.637Z,0.52
2023-07-17T00:45:51.765Z,0.50
2023-07-17T00:46:51.679Z,0.51
2023-07-17T00:47:51.687Z,0.51
2023-07-17T00:48:51.627Z,0.50
2023-07-17T00:49:51.629Z,0.51
2023-07-17T00:50:51.615Z,0.51
2023-07-17T00:51:51.629Z,0.52
2023-07-17T00:52:51.637Z,0.51
2023-07-17T00:53:51.676Z,0.52
2023-07-17T00:54:51.666Z,0.52
2023-07-17T00:55:51.659Z,0.51
2023-07-17T00:56:51.662Z,0.51
2023-07-17T00:57:51.667Z,0.52
2023-07-17T00:58:51.668Z,0.52
2023-07-17T00:59:51.688Z,0.52
2023-07-17T01:00:51.742Z,0.51
2023-07-17T01:01:51.755Z,0.51
2023-07-17T01:02:51.923Z,0.51
2023-07-17T01:03:51.688Z,0.51
2023-07-17T01:04:51.734Z,0.52
2023-07-17T01:05:51.748Z,0.51
2023-07-17T01:06:51.759Z,0.51
2023-07-17T01:07:51.784Z,0.52
2023-07-17T01:08:51.815Z,0.51
2023-07-17T01:09:51.844Z,0.51
2023-07-17T01:10:51.857Z,0.51
2023-07-17T01:11:51.892Z,0.51
2023-07-17T01:12:51.903Z,0.51
2023-07-17T01:13:51.926Z,0.51
2023-07-17T01:14:51.955Z,0.51
2023-07-17T01:15:51.967Z,0.51
2023-07-17T01:16:52.014Z,0.51
2023-07-17T01:17:52.102Z,0.52
2023-07-17T01:18:52.044Z,0.51
2023-07-17T01:19:52.075Z,0.51
2023-07-17T01:20:52.085Z,0.50
2023-07-17T01:21:52.094Z,0.52
2023-07-17T01:22:52.106Z,0.51
2023-07-17T01:23:52.108Z,0.50
2023-07-17T01:24:52.124Z,0.51
2023-07-17T01:25:52.156Z,0.51
2023-07-17T01:26:52.160Z,0.51
2023-07-17T01:27:52.192Z,0.51
2023-07-17T01:28:52.203Z,0.51
2023-07-17T01:29:52.224Z,0.51
2023-07-17T01:30:52.287Z,0.52
2023-07-17T01:31:52.273Z,0.50
2023-07-17T01:32:52.324Z,0.51
2023-07-17T01:33:52.325Z,0.51
2023-07-17T01:34:52.330Z,0.52
2023-07-17T01:35:52.369Z,0.52
2023-07-17T01:36:52.368Z,0.52
2023-07-17T01:37:52.365Z,0.53
2023-07-17T01:38:52.353Z,0.51
2023-07-17T01:39:52.371Z,0.51
2023-07-17T01:40:52.386Z,0.52
2023-07-17T01:41:52.377Z,0.52
2023-07-17T01:42:52.381Z,0.51
2023-07-17T01:43:52.393Z,0.51
2023-07-17T01:44:52.400Z,0.52
2023-07-17T01:45:52.404Z,0.51
2023-07-17T01:46:52.440Z,0.51
2023-07-17T01:47:52.500Z,0.51
2023-07-17T01:48:52.437Z,0.52
2023-07-17T01:49:52.466Z,0.51
2023-07-17T01:50:52.452Z,0.51
2023-07-17T01:51:52.444Z,0.51
2023-07-17T01:52:52.451Z,0.51
2023-07-17T01:53:52.459Z,0.51
2023-07-17T01:54:52.459Z,0.51
2023-07-17T01:55:52.471Z,0.51
2023-07-17T01:56:52.484Z,0.51
2023-07-17T01:57:52.487Z,0.51
2023-07-17T01:58:52.512Z,0.51
2023-07-17T01:59:52.508Z,0.50
2023-07-17T02:00:52.505Z,0.52
2023-07-17T02:01:52.534Z,0.50
2023-07-17T02:02:52.624Z,0.51
2023-07-17T02:03:52.523Z,0.51
2023-07-17T02:04:52.539Z,0.52
2023-07-17T02:05:52.570Z,0.52
2023-07-17T02:06:52.536Z,0.52
2023-07-17T02:07:52.545Z,0.52
2023-07-17T02:08:52.558Z,0.52
2023-07-17T02:09:52.574Z,0.53
2023-07-17T02:10:52.576Z,0.52
2023-07-17T02:11:52.589Z,0.52
2023-07-17T02:12:52.608Z,0.52
2023-07-17T02:13:53.165Z,0.51
2023-07-17T02:14:52.623Z,0.52
2023-07-17T02:15:52.610Z,0.52
2023-07-17T02:16:52.665Z,0.52
2023-07-17T02:17:52.702Z,0.51
2023-07-17T02:18:52.645Z,0.51
2023-07-17T02:19:52.637Z,0.52
2023-07-17T02:20:52.657Z,0.51
2023-07-17T02:21:52.776Z,0.50
2023-07-17T02:22:52.683Z,0.51
2023-07-17T02:23:52.704Z,0.52
2023-07-17T02:24:52.680Z,0.52
2023-07-17T02:25:52.689Z,0.52
2023-07-17T02:26:52.695Z,0.51
2023-07-17T02:27:52.707Z,0.53
2023-07-17T02:28:52.714Z,0.52
2023-07-17T02:29:52.725Z,0.52
2023-07-17T02:30:52.726Z,0.52
2023-07-17T02:31:52.772Z,0.52
2023-07-17T02:32:52.867Z,0.51
2023-07-17T02:33:52.735Z,0.52
2023-07-17T02:34:52.777Z,0.52
2023-07-17T02:35:52.761Z,0.53
2023-07-17T02:36:52.760Z,0.52
2023-07-17T02:37:52.793Z,0.53
2023-07-17T02:38:52.779Z,0.52
2023-07-17T02:39:52.821Z,0.51
2023-07-17T02:40:52.819Z,0.51
2023-07-17T02:41:52.821Z,0.51
2023-07-17T02:42:52.838Z,0.51
2023-07-17T02:43:52.830Z,0.52
2023-07-17T02:44:52.836Z,0.52
2023-07-17T02:45:52.856Z,0.52
2023-07-17T02:46:52.861Z,0.52
2023-07-17T02:47:52.903Z,0.51
2023-07-17T02:48:52.887Z,0.53
2023-07-17T02:49:52.893Z,0.53
2023-07-17T02:50:52.902Z,0.52
2023-07-17T02:51:52.904Z,0.53
2023-07-17T02:52:52.926Z,0.53
2023-07-17T02:53:52.970Z,0.52
2023-07-17T02:54:52.950Z,0.53
2023-07-17T02:55:52.953Z,0.52
2023-07-17T02:56:52.959Z,0.52
2023-07-17T02:57:52.971Z,0.52
2023-07-17T02:58:52.979Z,0.52
2023-07-17T02:59:52.990Z,0.52
2023-07-17T03:00:53.069Z,0.52
2023-07-17T03:01:53.158Z,0.51
2023-07-17T03:02:53.085Z,0.52
2023-07-17T03:03:53.034Z,0.53
2023-07-17T03:04:53.051Z,0.52
2023-07-17T03:05:53.203Z,0.52
2023-07-17T03:06:53.082Z,0.53
2023-07-17T03:07:53.098Z,0.52
2023-07-17T03:08:53.114Z,0.51
2023-07-17T03:09:53.157Z,0.53
2023-07-17T03:10:53.139Z,0.52
2023-07-17T03:11:53.159Z,0.52
2023-07-17T03:12:53.198Z,0.53
2023-07-17T03:13:53.169Z,0.52
2023-07-17T03:14:53.199Z,0.53
2023-07-17T03:15:53.233Z,0.52
2023-07-17T03:16:53.221Z,0.53
2023-07-17T03:17:53.249Z,0.53
2023-07-17T03:18:53.242Z,0.53
2023-07-17T03:19:53.263Z,0.53
2023-07-17T03:20:53.281Z,0.53
2023-07-17T03:21:53.280Z,0.52
2023-07-17T03:22:53.300Z,0.51
2023-07-17T03:23:53.318Z,0.52
2023-07-17T03:24:53.326Z,0.53
2023-07-17T03:25:53.363Z,0.52
2023-07-17T03:26:53.359Z,0.52
2023-07-17T03:27:53.384Z,0.53
2023-07-17T03:28:53.406Z,0.53
2023-07-17T03:29:53.404Z,0.53
2023-07-17T03:30:53.417Z,0.52
2023-07-17T03:31:53.451Z,0.52
2023-07-17T03:32:53.504Z,0.52
2023-07-17T03:33:53.520Z,0.53
2023-07-17T03:34:53.492Z,0.53
2023-07-17T03:35:53.496Z,0.51
2023-07-17T03:36:53.510Z,0.52
2023-07-17T03:37:53.526Z,0.51
2023-07-17T03:38:53.548Z,0.53
2023-07-17T03:39:53.566Z,0.52
2023-07-17T03:40:53.591Z,0.52
2023-07-17T03:41:53.634Z,0.52
2023-07-17T03:42:53.624Z,0.52
2023-07-17T03:43:53.640Z,0.53
2023-07-17T03:44:53.656Z,0.53
2023-07-17T03:45:53.696Z,0.51
2023-07-17T03:46:53.797Z,0.53
2023-07-17T03:47:53.786Z,0.53
2023-07-17T03:48:53.724Z,0.52
2023-07-17T03:49:53.754Z,0.51
2023-07-17T03:50:53.765Z,0.53
2023-07-17T03:51:53.781Z,0.53
2023-07-17T03:52:53.809Z,0.53
2023-07-17T03:53:53.822Z,0.53
2023-07-17T03:54:53.832Z,0.52
2023-07-17T03:55:53.852Z,0.52
2023-07-17T03:56:53.868Z,0.53
2023-07-17T03:57:53.912Z,0.52
2023-07-17T03:58:53.908Z,0.52
2023-07-17T03:59:53.924Z,0.52
2023-07-17T04:00:53.965Z,0.54
2023-07-17T04:01:53.968Z,0.53
2023-07-17T04:02:54.041Z,0.53
2023-07-17T04:03:54.075Z,0.52
2023-07-17T04:04:54.074Z,0.52
2023-07-17T04:05:54.060Z,0.53
2023-07-17T04:06:54.078Z,0.53
2023-07-17T04:07:54.104Z,0.52
2023-07-17T04:08:54.125Z,0.53
2023-07-17T04:09:54.149Z,0.53
2023-07-17T04:10:54.180Z,0.52
2023-07-17T04:11:54.218Z,0.52
2023-07-17T04:12:54.222Z,0.52
2023-07-17T04:13:54.288Z,0.52
2023-07-17T04:14:54.266Z,0.53
2023-07-17T04:15:54.305Z,0.52
2023-07-17T04:16:54.350Z,0.52
2023-07-17T04:17:54.395Z,0.52
2023-07-17T04:18:54.383Z,0.53
2023-07-17T04:19:54.371Z,0.51
2023-07-17T04:20:54.394Z,0.52
2023-07-17T04:21:54.416Z,0.52
2023-07-17T04:22:54.475Z,0.52
2023-07-17T04:23:54.514Z,0.52
2023-07-17T04:24:54.486Z,0.52
2023-07-17T04:25:54.497Z,0.51
2023-07-17T04:26:54.583Z,0.53
2023-07-17T04:27:54.541Z,0.51
2023-07-17T04:28:54.574Z,0.53
2023-07-17T04:29:54.608Z,0.53
2023-07-17T04:30:54.652Z,0.52
2023-07-17T04:31:54.623Z,0.51
2023-07-17T04:32:54.662Z,0.53
2023-07-17T04:33:54.657Z,0.53
2023-07-17T04:34:54.681Z,0.51
2023-07-17T04:35:54.700Z,0.52
2023-07-17T04:36:54.724Z,0.53
2023-07-17T04:37:54.747Z,0.52
2023-07-17T04:38:54.748Z,0.52
2023-07-17T04:39:54.767Z,0.51
2023-07-17T04:40:54.803Z,0.51
2023-07-17T04:41:54.810Z,0.51
2023-07-17T04:42:54.833Z,0.53
2023-07-17T04:43:54.852Z,0.52
2023-07-17T04:44:54.883Z,0.52
2023-07-17T04:45:54.906Z,0.52
2023-07-17T04:46:55.028Z,0.51
2023-07-17T04:47:55.081Z,0.52
2023-07-17T04:48:54.932Z,0.52
2023-07-17T04:49:54.962Z,0.52
2023-07-17T04:50:55.007Z,0.52
2023-07-17T04:51:55.008Z,0.52
2023-07-17T04:52:55.014Z,0.53
2023-07-17T04:53:55.048Z,0.52
2023-07-17T04:54:55.070Z,0.52
2023-07-17T04:55:55.100Z,0.52
2023-07-17T04:56:55.121Z,0.52
2023-07-17T04:57:55.145Z,0.52
2023-07-17T04:58:55.165Z,0.51
2023-07-17T04:59:55.185Z,0.53
2023-07-17T05:00:55.266Z,0.51
2023-07-17T05:01:55.255Z,0.51
2023-07-17T05:02:55.374Z,0.53
2023-07-17T05:03:55.346Z,0.52
2023-07-17T05:04:55.309Z,0.53
2023-07-17T05:05:55.338Z,0.52
2023-07-17T05:06:55.361Z,0.52
2023-07-17T05:07:55.400Z,0.51
2023-07-17T05:08:55.397Z,0.52
2023-07-17T05:09:55.418Z,0.52
2023-07-17T05:10:55.517Z,0.52
2023-07-17T05:11:55.477Z,0.52
2023-07-17T05:12:55.500Z,0.52
2023-07-17T05:13:55.532Z,0.53
2023-07-17T05:14:55.550Z,0.53
2023-07-17T05:15:55.575Z,0.53
2023-07-17T05:16:55.747Z,0.52
2023-07-17T05:17:55.690Z,0.53
2023-07-17T05:18:55.647Z,0.54
2023-07-17T05:19:55.668Z,0.54
2023-07-17T05:20:55.714Z,0.54
2023-07-17T05:21:55.717Z,0.54
2023-07-17T05:22:55.799Z,0.54
2023-07-17T05:23:55.751Z,0.55
2023-07-17T05:24:55.765Z,0.54
2023-07-17T05:25:55.798Z,0.54
2023-07-17T05:26:55.831Z,0.54
2023-07-17T05:27:55.842Z,0.54
2023-07-17T05:28:55.867Z,0.54
2023-07-17T05:29:55.897Z,0.55
2023-07-17T05:30:55.968Z,0.55
2023-07-17T05:31:55.931Z,0.55
2023-07-17T05:32:56.015Z,0.56
2023-07-17T05:33:56.001Z,0.56
2023-07-17T05:34:56.003Z,0.54
2023-07-17T05:35:56.048Z,0.56
2023-07-17T05:36:56.039Z,0.56
2023-07-17T05:37:56.049Z,0.56
2023-07-17T05:38:56.089Z,0.55
2023-07-17T05:39:56.106Z,0.56
2023-07-17T05:40:56.125Z,0.55
2023-07-17T05:41:56.163Z,0.55
2023-07-17T05:42:56.159Z,0.56
2023-07-17T05:43:56.184Z,0.55
2023-07-17T05:44:56.201Z,0.56
2023-07-17T05:45:56.227Z,0.55
2023-07-17T05:46:56.378Z,0.55
2023-07-17T05:47:56.320Z,0.55
2023-07-17T05:48:56.305Z,0.56
2023-07-17T05:49:56.371Z,0.57
2023-07-17T05:50:56.386Z,0.57
2023-07-17T05:51:56.439Z,0.58
2023-07-17T05:52:56.486Z,0.60
2023-07-17T05:53:56.564Z,0.62
2023-07-17T05:54:57.078Z,0.68
2023-07-17T05:55:56.631Z,0.74
2023-07-17T05:56:56.745Z,0.87
2023-07-17T05:57:56.734Z,0.99
2023-07-17T05:58:56.784Z,1.12
2023-07-17T05:59:56.878Z,1.24
2023-07-17T06:00:56.930Z,1.38
2023-07-17T06:01:56.973Z,1.50
2023-07-17T06:02:57.059Z,1.71
2023-07-17T06:03:57.212Z,1.75
2023-07-17T06:04:57.377Z,1.75
2023-07-17T06:05:57.201Z,1.82
2023-07-17T06:06:57.192Z,1.78
2023-07-17T06:07:57.223Z,1.83
2023-07-17T06:08:57.254Z,1.80
2023-07-17T06:09:57.284Z,1.76
2023-07-17T06:10:57.306Z,1.81
2023-07-17T06:11:57.334Z,1.79
2023-07-17T06:12:57.355Z,1.75
2023-07-17T06:13:57.398Z,1.77
2023-07-17T06:14:57.469Z,1.75
2023-07-17T06:15:57.544Z,1.73
2023-07-17T06:16:57.710Z,1.69
2023-07-17T06:17:57.741Z,1.73
2023-07-17T06:18:57.757Z,1.66
2023-07-17T06:19:57.817Z,1.58
2023-07-17T06:20:57.890Z,1.62
2023-07-17T06:21:58.027Z,1.58
2023-07-17T06:22:58.076Z,1.59
2023-07-17T06:23:58.052Z,1.57
2023-07-17T06:24:58.120Z,1.58
2023-07-17T06:25:58.148Z,1.58
2023-07-17T06:26:58.211Z,1.69
2023-07-17T06:27:58.292Z,1.71
2023-07-17T06:28:58.319Z,1.79
2023-07-17T06:29:58.348Z,1.91
2023-07-17T06:30:58.393Z,2.01
2023-07-17T06:31:58.473Z,2.20
2023-07-17T06:32:58.550Z,2.28
2023-07-17T06:33:58.520Z,2.35
2023-07-17T06:34:58.564Z,2.33
2023-07-17T06:35:58.602Z,2.34
2023-07-17T06:36:58.662Z,2.45
2023-07-17T06:37:58.756Z,2.38
2023-07-17T06:38:58.761Z,2.17
2023-07-17T06:39:58.769Z,2.13
2023-07-17T06:40:58.793Z,1.99
2023-07-17T06:41:58.826Z,1.89
2023-07-17T06:42:58.874Z,1.79
2023-07-17T06:43:58.874Z,1.78
2023-07-17T06:45:01.506Z,1.76
2023-07-17T06:45:58.971Z,1.76
2023-07-17T06:46:58.905Z,1.76
2023-07-17T06:47:58.993Z,1.76
2023-07-17T06:48:58.912Z,1.75
2023-07-17T06:49:58.930Z,1.68
2023-07-17T06:50:58.937Z,1.71
2023-07-17T06:51:58.956Z,1.71
2023-07-17T06:52:58.971Z,1.71
2023-07-17T06:53:59.000Z,1.72
2023-07-17T06:55:03.830Z,1.73
2023-07-17T06:55:58.947Z,1.74
2023-07-17T06:56:58.944Z,1.75
2023-07-17T06:57:58.946Z,1.74
2023-07-17T06:58:58.983Z,1.74
2023-07-17T06:59:58.989Z,1.69
2023-07-17T07:00:58.960Z,1.68
2023-07-17T07:01:59.383Z,1.70
2023-07-17T07:02:59.058Z,1.64
2023-07-17T07:03:59.035Z,1.64
2023-07-17T07:04:58.949Z,1.61
2023-07-17T07:05:58.965Z,1.56
2023-07-17T07:06:58.946Z,1.56
2023-07-17T07:07:58.946Z,1.54
2023-07-17T07:08:58.957Z,1.48
2023-07-17T07:09:59.043Z,1.48
2023-07-17T07:10:58.965Z,1.42
2023-07-17T07:11:58.978Z,1.39
2023-07-17T07:12:59.001Z,1.38
2023-07-17T07:13:58.977Z,1.33
2023-07-17T07:14:58.968Z,1.32
2023-07-17T07:15:59.012Z,1.28
2023-07-17T07:16:59.014Z,1.28
2023-07-17T07:17:59.025Z,1.28
2023-07-17T07:18:58.954Z,1.23
2023-07-17T07:19:58.971Z,1.22
2023-07-17T07:20:58.949Z,1.24
2023-07-17T07:21:58.955Z,1.22
2023-07-17T07:22:58.990Z,1.22
2023-07-17T07:23:58.932Z,1.21
2023-07-17T07:24:58.934Z,1.20
2023-07-17T07:25:58.966Z,1.19
2023-07-17T07:26:58.940Z,1.20
2023-07-17T07:27:58.939Z,1.20
2023-07-17T07:28:58.932Z,1.18
2023-07-17T07:29:58.938Z,1.18
2023-07-17T07:30:58.976Z,1.14
2023-07-17T07:31:58.982Z,1.15
2023-07-17T07:32:58.986Z,1.18
2023-07-17T07:33:58.940Z,1.16
2023-07-17T07:34:58.934Z,1.16
2023-07-17T07:35:58.929Z,1.19
2023-07-17T07:36:58.927Z,1.14
2023-07-17T07:37:58.928Z,1.15
2023-07-17T07:38:58.948Z,1.16
2023-07-17T07:39:58.932Z,1.16
2023-07-17T07:40:58.934Z,1.16
2023-07-17T07:41:58.990Z,1.15
2023-07-17T07:42:58.941Z,1.15
2023-07-17T07:43:58.925Z,1.15
2023-07-17T07:44:58.927Z,1.13
2023-07-17T07:45:58.970Z,1.12
2023-07-17T07:46:58.914Z,1.12
2023-07-17T07:47:58.953Z,1.12
2023-07-17T07:48:58.915Z,1.10
2023-07-17T07:49:58.949Z,1.08
2023-07-17T07:50:58.917Z,1.07
2023-07-17T07:51:58.910Z,1.03
2023-07-17T07:52:58.904Z,1.00
2023-07-17T07:53:58.904Z,0.97
2023-07-17T07:55:00.690Z,0.96
2023-07-17T07:55:58.904Z,0.98
2023-07-17T07:56:58.896Z,0.94
2023-07-17T07:57:59.011Z,0.89
2023-07-17T07:58:58.964Z,0.91
2023-07-17T07:59:58.955Z,0.93
2023-07-17T08:00:58.895Z,0.91
2023-07-17T08:01:58.960Z,0.91
2023-07-17T08:02:58.978Z,0.91
2023-07-17T08:03:58.923Z,0.90
2023-07-17T08:04:58.899Z,0.89
2023-07-17T08:05:58.942Z,0.91
2023-07-17T08:06:58.908Z,0.91
2023-07-17T08:07:58.965Z,0.95
2023-07-17T08:08:58.921Z,0.95
2023-07-17T08:09:58.917Z,0.97
2023-07-17T08:10:58.925Z,0.92
2023-07-17T08:11:58.963Z,0.91
2023-07-17T08:12:58.938Z,0.90
2023-07-17T08:13:58.970Z,0.88
2023-07-17T08:14:58.961Z,0.89
2023-07-17T08:15:58.989Z,0.91
2023-07-17T08:16:58.952Z,0.91
2023-07-17T08:17:59.076Z,0.91
2023-07-17T08:18:58.953Z,0.90
2023-07-17T08:19:58.964Z,0.89
2023-07-17T08:20:58.963Z,0.90
2023-07-17T08:21:58.948Z,0.92
2023-07-17T08:22:59.096Z,0.94
2023-07-17T08:23:58.975Z,1.00
2023-07-17T08:24:58.964Z,1.01
2023-07-17T08:25:59.053Z,1.01
2023-07-17T08:27:57.962Z,0.96
2023-07-17T08:28:58.959Z,0.92
2023-07-17T08:29:58.985Z,0.95
2023-07-17T08:30:59.034Z,0.92
2023-07-17T08:31:59.312Z,0.91
2023-07-17T08:32:59.001Z,0.90
2023-07-17T08:33:58.967Z,0.91
2023-07-17T08:34:58.946Z,0.90
2023-07-17T08:35:58.939Z,0.92
2023-07-17T08:36:58.941Z,0.90
2023-07-17T08:37:58.944Z,0.90
2023-07-17T08:38:58.947Z,0.91
2023-07-17T08:39:58.951Z,0.90
2023-07-17T08:40:58.991Z,0.90
2023-07-17T08:41:58.954Z,0.90
2023-07-17T08:42:58.945Z,0.91
2023-07-17T08:43:58.948Z,0.90
2023-07-17T08:44:58.949Z,0.88
2023-07-17T08:46:01.042Z,0.89
2023-07-17T08:46:58.947Z,0.89
2023-07-17T08:47:59.044Z,0.89
2023-07-17T08:48:58.939Z,0.91
2023-07-17T08:49:58.955Z,0.88
2023-07-17T08:50:58.963Z,0.89
2023-07-17T08:51:58.942Z,0.89
2023-07-17T08:52:58.968Z,0.89
2023-07-17T08:54:13.566Z,0.89
2023-07-17T08:54:58.949Z,0.89
2023-07-17T08:55:58.923Z,0.89
2023-07-17T08:56:58.925Z,0.90
2023-07-17T08:57:58.962Z,0.90
2023-07-17T08:58:58.953Z,0.91
2023-07-17T08:59:59.032Z,0.91
2023-07-17T09:00:58.933Z,0.90
2023-07-17T09:01:58.975Z,0.89
2023-07-17T09:02:58.992Z,0.88
2023-07-17T09:03:58.908Z,0.88
2023-07-17T09:04:58.915Z,0.91
2023-07-17T09:05:58.893Z,0.89
2023-07-17T09:06:58.889Z,0.89
2023-07-17T09:07:58.876Z,0.90
2023-07-17T09:08:58.871Z,0.89
2023-07-17T09:09:58.862Z,0.89
2023-07-17T09:10:58.859Z,0.89
2023-07-17T09:11:58.851Z,0.88
2023-07-17T09:12:58.859Z,0.88
2023-07-17T09:13:58.854Z,0.89
2023-07-17T09:14:58.829Z,0.89
2023-07-17T09:15:58.826Z,0.88
2023-07-17T09:16:58.833Z,0.87
2023-07-17T09:17:58.868Z,0.86
2023-07-17T09:18:58.803Z,0.86
2023-07-17T09:19:58.790Z,0.86
2023-07-17T09:20:58.783Z,0.88
2023-07-17T09:21:58.767Z,0.87
2023-07-17T09:22:58.812Z,0.87
2023-07-17T09:23:58.834Z,0.86
2023-07-17T09:24:58.909Z,0.86
2023-07-17T09:25:58.917Z,0.85
2023-07-17T09:26:58.946Z,0.83
2023-07-17T09:27:58.998Z,0.81
2023-07-17T09:28:59.098Z,0.81
2023-07-17T09:29:59.113Z,0.80
2023-07-17T09:30:59.235Z,0.79
2023-07-17T09:31:59.225Z,0.82
2023-07-17T09:32:59.299Z,0.79
2023-07-17T09:33:59.376Z,0.80
2023-07-17T09:34:59.388Z,0.81
2023-07-17T09:35:59.439Z,0.79
2023-07-17T09:36:59.500Z,0.80
2023-07-17T09:37:59.574Z,0.80
2023-07-17T09:38:59.609Z,0.80
2023-07-17T09:39:59.663Z,0.79
2023-07-17T09:40:59.722Z,0.77
2023-07-17T09:41:59.767Z,0.78
2023-07-17T09:42:59.814Z,0.79
2023-07-17T09:43:59.870Z,0.77
2023-07-17T09:44:59.917Z,0.76
2023-07-17T09:45:59.963Z,0.76
2023-07-17T09:47:00.075Z,0.76
2023-07-17T09:48:00.175Z,0.76
2023-07-17T09:49:00.115Z,0.76
2023-07-17T09:50:00.188Z,0.76
2023-07-17T09:51:00.202Z,0.74
2023-07-17T09:52:00.243Z,0.75
2023-07-17T09:53:00.288Z,0.75
2023-07-17T09:54:00.338Z,0.75
2023-07-17T09:55:00.369Z,0.74
2023-07-17T09:56:00.416Z,0.74
2023-07-17T09:57:00.453Z,0.74
2023-07-17T09:58:00.566Z,0.73
2023-07-17T09:59:00.536Z,0.74
2023-07-17T10:00:00.588Z,0.74
2023-07-17T10:01:00.699Z,0.75
2023-07-17T10:02:00.677Z,0.73
2023-07-17T10:03:00.787Z,0.74
2023-07-17T10:04:00.802Z,0.74
2023-07-17T10:05:00.867Z,0.73
2023-07-17T10:06:00.871Z,0.73
2023-07-17T10:07:00.889Z,0.72
2023-07-17T10:08:00.960Z,0.73
2023-07-17T10:09:00.940Z,0.71
2023-07-17T10:10:00.970Z,0.72
2023-07-17T10:11:01.004Z,0.71
2023-07-17T10:12:01.031Z,0.71
2023-07-17T10:13:01.050Z,0.71
2023-07-17T10:14:01.077Z,0.71
2023-07-17T10:15:01.127Z,0.71
2023-07-17T10:16:01.111Z,0.70
2023-07-17T10:17:01.213Z,0.71
2023-07-17T10:18:01.219Z,0.71
2023-07-17T10:19:01.200Z,0.70
2023-07-17T10:20:01.166Z,0.70
2023-07-17T10:21:01.192Z,0.70
2023-07-17T10:22:01.259Z,0.69
2023-07-17T10:23:01.253Z,0.70
2023-07-17T10:24:01.241Z,0.70
2023-07-17T10:25:01.233Z,0.70
2023-07-17T10:26:01.251Z,0.68
2023-07-17T10:27:01.250Z,0.69
2023-07-17T10:28:01.366Z,0.68
2023-07-17T10:29:01.264Z,0.69
2023-07-17T10:30:01.303Z,0.69
2023-07-17T10:31:01.323Z,0.69
2023-07-17T10:32:01.300Z,0.69
2023-07-17T10:33:01.292Z,0.67
2023-07-17T10:34:01.289Z,0.68
2023-07-17T10:35:01.271Z,0.68
2023-07-17T10:36:01.283Z,0.65
2023-07-17T10:37:01.282Z,0.65
2023-07-17T10:38:01.322Z,0.67
2023-07-17T10:39:01.266Z,0.65
2023-07-17T10:40:01.262Z,0.62
2023-07-17T10:41:01.323Z,0.63
2023-07-17T10:42:01.253Z,0.66
2023-07-17T10:43:01.228Z,0.64
2023-07-17T10:44:17.446Z,0.62
2023-07-17T10:45:01.194Z,0.62
2023-07-17T10:46:01.227Z,0.62
2023-07-17T10:47:01.219Z,0.63
2023-07-17T10:48:01.202Z,0.62
2023-07-17T10:49:01.104Z,0.60
2023-07-17T10:50:01.072Z,0.63
2023-07-17T10:51:01.068Z,0.59
2023-07-17T10:52:01.059Z,0.63
2023-07-17T10:53:01.002Z,0.61
2023-07-17T10:54:01.037Z,0.60
2023-07-17T10:55:00.956Z,0.58
2023-07-17T10:56:00.920Z,0.60
2023-07-17T10:57:00.889Z,0.62
2023-07-17T10:58:00.865Z,0.60
2023-07-17T10:59:00.829Z,0.62
2023-07-17T11:00:00.799Z,0.61
2023-07-17T11:01:00.773Z,0.60
2023-07-17T11:02:00.836Z,0.59
2023-07-17T11:03:00.747Z,0.56
2023-07-17T11:04:00.755Z,0.58
2023-07-17T11:05:00.676Z,0.57
2023-07-17T11:06:00.635Z,0.57
2023-07-17T11:07:00.605Z,0.56
2023-07-17T11:08:00.570Z,0.59
2023-07-17T11:09:00.536Z,0.57
2023-07-17T11:10:00.675Z,0.56
2023-07-17T11:11:00.480Z,0.57
2023-07-17T11:12:00.447Z,0.56
2023-07-17T11:13:00.418Z,0.59
2023-07-17T11:14:00.382Z,0.58
2023-07-17T11:15:00.362Z,0.55
2023-07-17T11:16:00.324Z,0.57
2023-07-17T11:17:00.376Z,0.57
2023-07-17T11:18:00.388Z,0.54
2023-07-17T11:19:00.235Z,0.55
2023-07-17T11:20:00.236Z,0.53
2023-07-17T11:21:00.189Z,0.53
2023-07-17T11:22:00.159Z,0.56
2023-07-17T11:23:00.169Z,0.54
2023-07-17T11:24:00.112Z,0.54
2023-07-17T11:25:00.088Z,0.52
2023-07-17T11:26:00.089Z,0.53
2023-07-17T11:27:00.016Z,0.54
2023-07-17T11:27:59.999Z,0.53
2023-07-17T11:28:59.969Z,0.52
2023-07-17T11:29:59.940Z,0.53
2023-07-17T11:30:59.908Z,0.53
2023-07-17T11:31:59.905Z,0.52
2023-07-17T11:32:59.929Z,0.52
2023-07-17T11:33:59.894Z,0.52
2023-07-17T11:34:59.799Z,0.51
2023-07-17T11:35:59.772Z,0.53
2023-07-17T11:36:59.751Z,0.51
2023-07-17T11:37:59.714Z,0.51
2023-07-17T11:38:59.701Z,0.52
2023-07-17T11:39:59.666Z,0.52
2023-07-17T11:40:59.654Z,0.51
2023-07-17T11:41:59.638Z,0.50
2023-07-17T11:42:59.585Z,0.51
2023-07-17T11:43:59.552Z,0.52
2023-07-17T11:44:59.526Z,0.52
2023-07-17T11:45:59.526Z,0.50
2023-07-17T11:46:59.491Z,0.50
2023-07-17T11:47:59.531Z,0.51
2023-07-17T11:48:59.437Z,0.53
2023-07-17T11:49:59.393Z,0.50
2023-07-17T11:50:59.352Z,0.52
2023-07-17T11:51:59.328Z,0.51
2023-07-17T11:52:59.314Z,0.50
2023-07-17T11:53:59.294Z,0.52
2023-07-17T11:54:59.283Z,0.51
2023-07-17T11:55:59.286Z,0.51
2023-07-17T11:56:59.327Z,0.51
2023-07-17T11:58:04.381Z,0.51
2023-07-17T11:58:59.345Z,0.52
2023-07-17T11:59:59.292Z,0.52
2023-07-17T12:00:59.289Z,0.52
2023-07-17T12:01:59.259Z,0.51
2023-07-17T12:02:59.257Z,0.51
2023-07-17T12:03:59.214Z,0.52
2023-07-17T12:04:59.125Z,0.51
2023-07-17T12:05:59.124Z,0.52
2023-07-17T12:06:59.098Z,0.51
2023-07-17T12:07:59.048Z,0.51
2023-07-17T12:08:59.009Z,0.52
2023-07-17T12:09:59.008Z,0.51
2023-07-17T12:10:58.943Z,0.51
2023-07-17T12:11:58.924Z,0.52
2023-07-17T12:12:58.889Z,0.51
2023-07-17T12:13:58.876Z,0.51
2023-07-17T12:14:58.832Z,0.51
2023-07-17T12:15:58.919Z,0.52
2023-07-17T12:16:58.785Z,0.50
2023-07-17T12:17:58.805Z,0.51
2023-07-17T12:18:58.719Z,0.52
2023-07-17T12:19:58.695Z,0.51
2023-07-17T12:20:58.675Z,0.51
2023-07-17T12:21:58.826Z,0.52
2023-07-17T12:22:58.662Z,0.52
2023-07-17T12:23:58.661Z,0.50
2023-07-17T12:24:58.697Z,0.53
2023-07-17T12:25:58.768Z,0.53
2023-07-17T12:26:59.635Z,0.51
2023-07-17T12:27:58.798Z,0.53
2023-07-17T12:28:58.837Z,0.52
2023-07-17T12:29:58.909Z,0.52
2023-07-17T12:30:58.889Z,0.52
2023-07-17T12:31:59.016Z,0.51
2023-07-17T12:32:59.378Z,0.52
2023-07-17T12:33:58.948Z,0.53
2023-07-17T12:34:58.878Z,0.52
2023-07-17T12:35:58.852Z,0.51
2023-07-17T12:36:58.817Z,0.52
2023-07-17T12:37:58.831Z,0.51
2023-07-17T12:38:59.323Z,0.51
2023-07-17T12:39:58.724Z,0.51
2023-07-17T12:40:58.690Z,0.51
2023-07-17T12:41:58.659Z,0.51
2023-07-17T12:42:58.624Z,0.52
2023-07-17T12:43:58.616Z,0.52
2023-07-17T12:44:58.590Z,0.51
2023-07-17T12:45:58.605Z,0.50
2023-07-17T12:46:58.531Z,0.51
2023-07-17T12:47:58.579Z,0.51
2023-07-17T12:48:58.463Z,0.50
2023-07-17T12:49:58.449Z,0.51
2023-07-17T12:50:59.486Z,0.52
2023-07-17T12:51:58.378Z,0.53
2023-07-17T12:52:58.348Z,0.51
2023-07-17T12:53:58.337Z,0.52
2023-07-17T12:54:58.317Z,0.51
2023-07-17T12:56:14.768Z,0.51
2023-07-17T12:56:58.305Z,0.51
2023-07-17T12:57:58.269Z,0.51
2023-07-17T12:58:58.283Z,0.52
2023-07-17T12:59:58.226Z,0.51
2023-07-17T13:00:58.235Z,0.52
2023-07-17T13:02:01.575Z,0.53
2023-07-17T13:02:58.209Z,0.53
2023-07-17T13:03:58.286Z,0.52
2023-07-17T13:04:58.081Z,0.53
2023-07-17T13:05:58.061Z,0.53
2023-07-17T13:06:58.030Z,0.50
2023-07-17T13:07:57.992Z,0.50
2023-07-17T13:08:57.971Z,0.52
2023-07-17T13:09:59.573Z,0.52
2023-07-17T13:10:58.091Z,0.51
2023-07-17T13:11:57.863Z,0.52
2023-07-17T13:12:57.863Z,0.52
2023-07-17T13:13:57.808Z,0.52
2023-07-17T13:14:57.774Z,0.51
2023-07-17T13:15:57.802Z,0.51
2023-07-17T13:16:58.217Z,0.51
2023-07-17T13:17:57.728Z,0.52
2023-07-17T13:18:57.644Z,0.52
2023-07-17T13:19:57.605Z,0.51